Jacutinga, Brazil
Current Conditions -  °F | °C
As of 1:00 PM on Friday 28 Nov 2014 (Local Time) from SBPC Reporting Station
Broken Clouds Broken Clouds  
Wind Chill: 79°   Ceiling: 7000
Heat Index: 81°   Visibility: 6mi
Dew Point: 66°   Wind: 3mph
Humidity: 65%   Direction: 10°N
Pressure: 30.12"   Gusts: NA
Location:  22.29°S, 46.61°W
Report Text: SBPC 281500Z 01003KT 9999 SCT017 BKN070 26/19 Q1020
Loading
Personal Weather Stations






























Interactive Weather Map New forecast layout! Learn more

10-Day Weather Forecast

Advertisements
Track Severe Weather on mobile